Time;durP1;ratioP1;P1;durP2;ratioP2;P2;SDS_P1;SDS_P2;PMS_P1;PMS_P2;Temp;Humidity;BMP_temperature;BMP_pressure;BME280_temperature;BME280_humidity;BME280_pressure;Samples;Min_cycle;Max_cycle;Signal;HPM_P1;HPM_P2
2022/02/01 00:02:14;;;;;;;;;;;;;;;;;;2125647;27;19928;-75
2022/02/01 00:03:16;;;;;;;;;;;;;;;;;;2125968;27;19924;-75
2022/02/01 00:04:34;;;;;;;;;;;;;;;;;;2125245;27;20806;-75
2022/02/01 00:05:48;;;;;;;;;;;;;;;;;;2125564;27;19993;-75
2022/02/01 00:07:18;;;;;;;;;;;;;;;;;;2125586;27;20593;-77
2022/02/01 00:08:43;;;;;;;;;;;;;;;;;;2125476;27;20133;-74
2022/02/01 00:11:22;;;;;;;;;;;;;;;;;;2101060;27;20657;-73
2022/02/01 00:14:07;;;;;;;;;;;;;;;;;;2125493;27;19924;-74
2022/02/01 00:33:10;;;;;;;;;;;;;;;;;;2100510;28;19931;-75
2022/02/01 00:33:24;;;;;;;;;;;;;;;;;;2127789;27;19924;-74
2022/02/01 00:36:47;;;;;;;;;;;;;;;;;;2127205;27;19924;-75
2022/02/01 00:38:02;;;;;;;;;;;;;;;;;;2126466;27;19936;-78
2022/02/01 00:39:13;;;;;;;;;;;;;;;;;;2126343;27;20020;-74
2022/02/01 00:40:15;;;;;;;;;;;;;;;;;;2126983;27;19934;-76
2022/02/01 00:41:19;;;;;;;;;;;;;;;;;;2126923;27;19935;-74
2022/02/01 00:42:21;;;;;;;;;;;;;;;;;;2126406;27;19961;-74
2022/02/01 00:43:23;;;;;;;;;;;;;;;;;;2126392;27;20738;-74
2022/02/01 00:44:25;;;;;;;;;;;;;;;;;;2117799;27;19936;-74
2022/02/01 00:45:27;;;;;;;;;;;;;;;;;;2125935;27;19924;-75
2022/02/01 00:46:28;;;;;;;;;;;;;;;;;;2135414;27;19934;-75
2022/02/01 00:47:31;;;;;;;;;;;;;;;;;;2134482;27;19978;-77
2022/02/01 00:48:32;;;;;;;;;;;;;;;;;;2118308;27;20039;-75
2022/02/01 00:49:36;;;;;;;;;;;;;;;;;;2126378;27;20065;-75
2022/02/01 00:50:38;;;;;;;;;;;;;;;;;;2126733;27;19934;-74
2022/02/01 00:51:40;;;;;;;;;;;;;;;;;;2127277;27;19985;-76
2022/02/01 00:52:42;;;;;;;;;;;;;;;;;;2126600;27;19934;-76
2022/02/01 00:53:44;;;;;;;;;;;;;;;;;;2126672;27;19931;-75
2022/02/01 00:54:47;;;;;;;;;;;;;;;;;;2118164;27;20639;-76
2022/02/01 00:55:49;;;;;;;;;;;;;;;;;;2126567;27;19935;-75
2022/02/01 00:56:50;;;;;;;;;;;;;;;;;;2135017;27;20058;-75
2022/02/01 00:57:52;;;;;;;;;;;;;;;;;;2134615;27;20091;-74
2022/02/01 00:58:54;;;;;;;;;;;;;;;;;;2126415;27;20045;-75
2022/02/01 00:59:55;;;;;;;;;;;;;;;;;;2126217;27;19927;-77
2022/02/01 01:00:57;;;;;;;;;;;;;;;;;;2126393;27;19969;-76
2022/02/01 01:01:59;;;;;;;;;;;;;;;;;;2118314;27;19928;-74
2022/02/01 01:03:01;;;;;;;;;;;;;;;;;;2126137;27;20018;-75
2022/02/01 01:04:03;;;;;;;;;;;;;;;;;;2134205;27;20837;-76
2022/02/01 01:05:04;;;;;;;;;;;;;;;;;;2143437;27;19970;-77
2022/02/01 01:06:07;;;;;;;;;;;;;;;;;;2126760;27;19924;-77
2022/02/01 01:07:08;;;;;;;;;;;;;;;;;;2126408;27;20599;-76
2022/02/01 01:08:11;;;;;;;;;;;;;;;;;;2117812;27;19924;-75
2022/02/01 01:09:14;;;;;;;;;;;;;;;;;;2126685;27;19924;-74
2022/02/01 01:10:16;;;;;;;;;;;;;;;;;;2126408;27;20734;-77
2022/02/01 01:11:18;;;;;;;;;;;;;;;;;;2126311;27;20711;-74
2022/02/01 01:12:24;;;;;;;;;;;;;;;;;;2126535;27;19951;-76
2022/02/01 01:16:02;;;;;;;;;;;;;;;;;;2127221;27;19924;-77
2022/02/01 01:44:07;;;;;;;;;;;;;;;;;;2126586;27;20142;-75
2022/02/01 01:44:46;;;;;;;;;;;;;;;;;;2112825;27;19927;-73
2022/02/01 01:53:44;;;;;;;;;;;;;;;;;;2126099;27;19934;-75
2022/02/01 01:54:45;;;;;;;;;;;;;;;;;;2126085;27;19941;-77
2022/02/01 01:55:48;;;;;;;;;;;;;;;;;;2125858;27;20001;-76
2022/02/01 01:56:54;;;;;;;;;;;;;;;;;;2118072;27;19949;-75
2022/02/01 01:57:56;;;;;;;;;;;;;;;;;;2125850;27;20692;-76
2022/02/01 01:59:04;;;;;;;;;;;;;;;;;;2135024;27;20060;-75
2022/02/01 02:00:08;;;;;;;;;;;;;;;;;;2133364;27;20000;-75
2022/02/01 02:01:14;;;;;;;;;;;;;;;;;;2126112;27;19967;-75
2022/02/01 02:02:17;;;;;;;;;;;;;;;;;;2125788;27;20052;-75
2022/02/01 02:03:19;;;;;;;;;;;;;;;;;;2125664;27;19924;-75
2022/02/01 02:04:22;;;;;;;;;;;;;;;;;;2125742;27;19924;-77
2022/02/01 02:05:25;;;;;;;;;;;;;;;;;;2125645;27;19928;-75
2022/02/01 02:06:27;;;;;;;;;;;;;;;;;;2125821;27;19927;-75
2022/02/01 02:07:29;;;;;;;;;;;;;;;;;;2125616;27;19959;-77
2022/02/01 02:08:31;;;;;;;;;;;;;;;;;;2117510;27;20046;-77
2022/02/01 02:09:33;;;;;;;;;;;;;;;;;;2125871;27;19924;-76
2022/02/01 02:10:45;;;;;;;;;;;;;;;;;;2126333;27;20772;-75
2022/02/01 02:11:55;;;;;;;;;;;;;;;;;;2125564;27;19928;-74
2022/02/01 02:14:17;;;;;;;;;;;;;;;;;;2125810;27;19935;-73
2022/02/01 02:14:28;;;;;;;;;;;;;;;;;;2125526;27;20753;-75
2022/02/01 02:15:42;;;;;;;;;;;;;;;;;;2125531;27;19938;-74
2022/02/01 02:16:50;;;;;;;;;;;;;;;;;;2125499;27;19927;-74
2022/02/01 02:17:52;;;;;;;;;;;;;;;;;;2118275;27;19932;-74
2022/02/01 02:18:55;;;;;;;;;;;;;;;;;;2125686;27;20041;-75
2022/02/01 02:19:57;;;;;;;;;;;;;;;;;;2125824;27;19928;-74
2022/02/01 02:20:58;;;;;;;;;;;;;;;;;;2125687;27;20793;-74
2022/02/01 02:22:00;;;;;;;;;;;;;;;;;;2125549;27;19924;-77
2022/02/01 02:23:03;;;;;;;;;;;;;;;;;;2125257;27;20692;-75
2022/02/01 02:24:05;;;;;;;;;;;;;;;;;;2126271;27;19928;-76
2022/02/01 02:25:07;;;;;;;;;;;;;;;;;;2125667;27;19931;-74
2022/02/01 02:26:09;;;;;;;;;;;;;;;;;;2125601;27;19999;-75
2022/02/01 02:27:11;;;;;;;;;;;;;;;;;;2117491;27;20723;-77
2022/02/01 02:28:14;;;;;;;;;;;;;;;;;;2125628;27;19928;-74
2022/02/01 02:29:17;;;;;;;;;;;;;;;;;;2125715;27;19986;-74
2022/02/01 02:30:19;;;;;;;;;;;;;;;;;;2125649;27;20835;-75
2022/02/01 02:31:22;;;;;;;;;;;;;;;;;;2118882;27;20620;-74
2022/02/01 02:32:26;;;;;;;;;;;;;;;;;;2125846;27;19928;-75
2022/02/01 02:33:28;;;;;;;;;;;;;;;;;;2125820;27;20062;-75
2022/02/01 02:34:30;;;;;;;;;;;;;;;;;;2125424;27;20791;-77
2022/02/01 02:35:37;;;;;;;;;;;;;;;;;;2126319;27;19935;-75
2022/02/01 02:36:55;;;;;;;;;;;;;;;;;;2125277;27;19928;-74
2022/02/01 02:37:58;;;;;;;;;;;;;;;;;;2124306;27;20050;-74
2022/02/01 02:39:08;;;;;;;;;;;;;;;;;;2124493;27;19974;-73
2022/02/01 02:40:35;;;;;;;;;;;;;;;;;;2123815;27;20065;-76
2022/02/01 02:41:50;;;;;;;;;;;;;;;;;;2125282;27;20058;-75
2022/02/01 02:45:37;;;;;;;;;;;;;;;;;;2125402;27;20743;-76
2022/02/01 02:46:41;;;;;;;;;;;;;;;;;;2124829;27;20816;-73
2022/02/01 02:47:44;;;;;;;;;;;;;;;;;;2124559;27;20001;-75
2022/02/01 02:48:47;;;;;;;;;;;;;;;;;;2125451;27;19923;-73
2022/02/01 02:49:49;;;;;;;;;;;;;;;;;;2124424;27;19924;-74
2022/02/01 02:50:51;;;;;;;;;;;;;;;;;;2124502;27;19931;-76
2022/02/01 02:51:55;;;;;;;;;;;;;;;;;;2116585;27;19928;-75
2022/02/01 02:52:57;;;;;;;;;;;;;;;;;;2124891;27;20763;-76
2022/02/01 02:53:59;;;;;;;;;;;;;;;;;;2125170;27;19924;-77
2022/02/01 02:55:02;;;;;;;;;;;;;;;;;;2125089;27;19923;-75
2022/02/01 02:56:06;;;;;;;;;;;;;;;;;;2125243;27;20073;-75
2022/02/01 02:57:10;;;;;;;;;;;;;;;;;;2124862;27;19932;-76
2022/02/01 02:58:12;;;;;;;;;;;;;;;;;;2117428;27;19975;-75
2022/02/01 02:59:15;;;;;;;;;;;;;;;;;;2125166;27;19927;-77
2022/02/01 03:00:18;;;;;;;;;;;;;;;;;;2125242;27;19932;-76
2022/02/01 03:01:20;;;;;;;;;;;;;;;;;;2125283;27;19935;-76
2022/02/01 03:02:25;;;;;;;;;;;;;;;;;;2125023;27;19928;-73
2022/02/01 03:03:31;;;;;;;;;;;;;;;;;;2117052;27;19924;-74
2022/02/01 03:04:33;;;;;;;;;;;;;;;;;;2125010;27;19983;-75
2022/02/01 03:05:36;;;;;;;;;;;;;;;;;;2125427;27;19931;-75
2022/02/01 03:06:37;;;;;;;;;;;;;;;;;;2124230;27;19928;-76
2022/02/01 03:07:40;;;;;;;;;;;;;;;;;;2124219;27;20171;-74
2022/02/01 03:08:45;;;;;;;;;;;;;;;;;;2116329;27;19924;-74
2022/02/01 03:09:48;;;;;;;;;;;;;;;;;;2124558;27;19928;-76
2022/02/01 03:10:53;;;;;;;;;;;;;;;;;;2124458;27;20833;-76
2022/02/01 03:12:03;;;;;;;;;;;;;;;;;;2124989;27;20045;-76
2022/02/01 03:13:29;;;;;;;;;;;;;;;;;;2124360;27;20755;-76
2022/02/01 03:15:09;;;;;;;;;;;;;;;;;;2125058;27;19934;-77
2022/02/01 03:16:53;;;;;;;;;;;;;;;;;;2125317;27;19924;-76
2022/02/01 03:19:58;;;;;;;;;;;;;;;;;;2126069;27;19998;-77
2022/02/01 03:21:19;;;;;;;;;;;;;;;;;;2125875;27;19931;-77
2022/02/01 03:22:41;;;;;;;;;;;;;;;;;;2125712;27;20819;-77
2022/02/01 03:24:04;;;;;;;;;;;;;;;;;;2125909;27;19923;-76
2022/02/01 03:25:25;;;;;;;;;;;;;;;;;;2125502;27;20722;-76
2022/02/01 03:26:46;;;;;;;;;;;;;;;;;;2123125;27;19931;-77
2022/02/01 03:28:08;;;;;;;;;;;;;;;;;;2127838;27;20001;-75
2022/02/01 03:29:29;;;;;;;;;;;;;;;;;;2127966;27;19931;-76
2022/02/01 03:30:51;;;;;;;;;;;;;;;;;;2127103;27;20032;-76
2022/02/01 03:32:14;;;;;;;;;;;;;;;;;;2126807;27;19928;-74
2022/02/01 03:33:35;;;;;;;;;;;;;;;;;;2127439;27;19927;-77
2022/02/01 03:34:58;;;;;;;;;;;;;;;;;;2127674;27;19923;-76
2022/02/01 03:36:19;;;;;;;;;;;;;;;;;;2124241;27;19961;-76
2022/02/01 03:37:50;;;;;;;;;;;;;;;;;;2118444;27;19927;-77
2022/02/01 03:39:11;;;;;;;;;;;;;;;;;;2118919;27;20709;-78
2022/02/01 03:40:34;;;;;;;;;;;;;;;;;;2126699;27;19928;-78
2022/02/01 03:41:55;;;;;;;;;;;;;;;;;;2126881;27;19928;-78
2022/02/01 03:43:16;;;;;;;;;;;;;;;;;;2127015;27;19927;-75
2022/02/01 03:44:38;;;;;;;;;;;;;;;;;;2118474;28;19935;-78
2022/02/01 03:46:00;;;;;;;;;;;;;;;;;;2115613;28;20584;-78
2022/02/01 03:47:22;;;;;;;;;;;;;;;;;;2122695;27;19924;-78
2022/02/01 03:48:44;;;;;;;;;;;;;;;;;;2124186;27;19935;-76
2022/02/01 03:50:07;;;;;;;;;;;;;;;;;;2127277;27;19924;-75
2022/02/01 03:51:28;;;;;;;;;;;;;;;;;;2126836;27;19967;-76
2022/02/01 03:52:49;;;;;;;;;;;;;;;;;;2126929;27;19924;-75
2022/02/01 03:54:13;;;;;;;;;;;;;;;;;;2126433;27;19963;-76
2022/02/01 03:55:34;;;;;;;;;;;;;;;;;;2127095;27;19961;-75
2022/02/01 03:56:56;;;;;;;;;;;;;;;;;;2123581;27;19935;-76
2022/02/01 03:58:17;;;;;;;;;;;;;;;;;;2135741;27;19930;-76
2022/02/01 03:59:38;;;;;;;;;;;;;;;;;;2124453;27;20005;-77
2022/02/01 04:01:02;;;;;;;;;;;;;;;;;;2134998;27;19958;-77
2022/02/01 04:02:24;;;;;;;;;;;;;;;;;;2120524;27;20027;-76
2022/02/01 04:03:45;;;;;;;;;;;;;;;;;;2118227;28;19928;-76
2022/02/01 04:05:07;;;;;;;;;;;;;;;;;;2135007;27;19986;-76
2022/02/01 04:06:28;;;;;;;;;;;;;;;;;;2120509;27;19969;-75
2022/02/01 04:07:50;;;;;;;;;;;;;;;;;;2132300;27;19928;-77
2022/02/01 04:09:11;;;;;;;;;;;;;;;;;;2120834;27;19928;-76
2022/02/01 04:10:33;;;;;;;;;;;;;;;;;;2132457;27;20008;-76
2022/02/01 04:11:55;;;;;;;;;;;;;;;;;;2123608;27;19924;-77
2022/02/01 04:13:17;;;;;;;;;;;;;;;;;;2135343;27;20000;-79
2022/02/01 04:14:38;;;;;;;;;;;;;;;;;;2120800;27;19962;-79
2022/02/01 04:16:00;;;;;;;;;;;;;;;;;;2132244;27;20634;-77
2022/02/01 04:17:23;;;;;;;;;;;;;;;;;;2124879;27;20004;-77
2022/02/01 04:18:46;;;;;;;;;;;;;;;;;;2126601;27;19924;-77
2022/02/01 04:20:07;;;;;;;;;;;;;;;;;;2123850;27;19928;-78
2022/02/01 04:21:29;;;;;;;;;;;;;;;;;;2126858;27;20013;-79
2022/02/01 04:22:51;;;;;;;;;;;;;;;;;;2126623;27;19924;-77
2022/02/01 04:24:14;;;;;;;;;;;;;;;;;;2127025;27;20696;-77
2022/02/01 04:25:37;;;;;;;;;;;;;;;;;;2127397;27;19931;-77
2022/02/01 04:26:58;;;;;;;;;;;;;;;;;;2127548;27;20680;-77
2022/02/01 04:28:20;;;;;;;;;;;;;;;;;;2127072;27;19923;-76
2022/02/01 04:29:47;;;;;;;;;;;;;;;;;;2127360;27;19931;-77
2022/02/01 04:31:08;;;;;;;;;;;;;;;;;;2127151;27;19931;-77
2022/02/01 04:32:29;;;;;;;;;;;;;;;;;;2127324;27;19935;-75
2022/02/01 04:33:51;;;;;;;;;;;;;;;;;;2124899;27;19927;-77
2022/02/01 04:35:14;;;;;;;;;;;;;;;;;;2127302;27;20009;-77
2022/02/01 04:36:36;;;;;;;;;;;;;;;;;;2127920;27;19928;-77
2022/02/01 04:37:57;;;;;;;;;;;;;;;;;;2127828;27;20045;-77
2022/02/01 04:39:20;;;;;;;;;;;;;;;;;;2127508;27;19966;-78
2022/02/01 04:40:41;;;;;;;;;;;;;;;;;;2127999;27;19924;-77
2022/02/01 04:42:03;;;;;;;;;;;;;;;;;;2128565;27;19931;-80
2022/02/01 04:43:24;;;;;;;;;;;;;;;;;;2130388;27;19987;-78
2022/02/01 04:44:43;;;;;;;;;;;;;;;;;;2128950;27;20705;-74
2022/02/01 04:46:08;;;;;;;;;;;;;;;;;;2128890;27;20891;-76
2022/02/01 04:47:32;;;;;;;;;;;;;;;;;;2124731;27;19935;-75
2022/02/01 04:48:53;;;;;;;;;;;;;;;;;;2126977;27;20001;-77
2022/02/01 04:50:05;;;;;;;;;;;;;;;;;;2127129;27;19928;-76
2022/02/01 04:51:27;;;;;;;;;;;;;;;;;;2127415;27;19923;-75
2022/02/01 04:52:52;;;;;;;;;;;;;;;;;;2127657;27;19927;-76
2022/02/01 04:54:13;;;;;;;;;;;;;;;;;;2126842;27;20010;-78
2022/02/01 04:55:54;;;;;;;;;;;;;;;;;;2127111;27;19984;-75
2022/02/01 04:57:15;;;;;;;;;;;;;;;;;;2126617;27;20749;-76
2022/02/01 04:58:37;;;;;;;;;;;;;;;;;;2126696;27;20000;-76
2022/02/01 04:59:58;;;;;;;;;;;;;;;;;;2124291;27;20622;-76
2022/02/01 05:01:27;;;;;;;;;;;;;;;;;;2126701;27;19924;-75
2022/02/01 05:02:50;;;;;;;;;;;;;;;;;;2126683;27;20737;-75
2022/02/01 05:04:17;;;;;;;;;;;;;;;;;;2127128;27;19924;-76
2022/02/01 05:05:26;;;;;;;;;;;;;;;;;;2127125;27;20040;-77
2022/02/01 05:06:49;;;;;;;;;;;;;;;;;;2127445;27;19935;-76
2022/02/01 05:08:11;;;;;;;;;;;;;;;;;;2125953;27;19935;-75
2022/02/01 05:09:33;;;;;;;;;;;;;;;;;;2126918;27;19923;-77
2022/02/01 05:10:44;;;;;;;;;;;;;;;;;;2126638;27;19928;-78
2022/02/01 05:12:09;;;;;;;;;;;;;;;;;;2126725;27;19932;-79
2022/02/01 05:14:53;;;;;;;;;;;;;;;;;;2126175;27;19930;-74
2022/02/01 05:16:19;;;;;;;;;;;;;;;;;;2126771;27;19924;-77
2022/02/01 05:17:51;;;;;;;;;;;;;;;;;;2126017;27;19928;-76
2022/02/01 05:19:23;;;;;;;;;;;;;;;;;;2126315;27;20002;-76
2022/02/01 05:22:19;;;;;;;;;;;;;;;;;;2126719;27;20046;-77
2022/02/01 05:23:41;;;;;;;;;;;;;;;;;;2126776;27;19924;-76
2022/02/01 05:25:03;;;;;;;;;;;;;;;;;;2126041;27;19989;-78
2022/02/01 05:26:09;;;;;;;;;;;;;;;;;;2126173;27;19928;-74
2022/02/01 05:27:31;;;;;;;;;;;;;;;;;;2126497;27;20001;-74
2022/02/01 05:28:52;;;;;;;;;;;;;;;;;;2126767;27;20645;-77
2022/02/01 05:30:13;;;;;;;;;;;;;;;;;;2126121;27;19931;-76
2022/02/01 05:31:25;;;;;;;;;;;;;;;;;;2126192;27;19935;-75
2022/02/01 05:32:47;;;;;;;;;;;;;;;;;;2126133;27;20800;-74
2022/02/01 05:34:08;;;;;;;;;;;;;;;;;;2126992;27;19931;-75
2022/02/01 05:35:31;;;;;;;;;;;;;;;;;;2122781;27;19923;-77
2022/02/01 05:37:01;;;;;;;;;;;;;;;;;;2133294;27;19927;-74
2022/02/01 05:38:22;;;;;;;;;;;;;;;;;;2121857;27;19927;-75
2022/02/01 05:39:44;;;;;;;;;;;;;;;;;;2120638;27;19998;-76
2022/02/01 05:41:08;;;;;;;;;;;;;;;;;;2123282;27;19928;-77
2022/02/01 05:42:41;;;;;;;;;;;;;;;;;;2120414;27;19924;-76
2022/02/01 05:44:03;;;;;;;;;;;;;;;;;;2121058;27;20039;-77
2022/02/01 05:45:23;;;;;;;;;;;;;;;;;;2125940;27;19935;-75
2022/02/01 05:46:36;;;;;;;;;;;;;;;;;;2121660;27;19930;-75
2022/02/01 05:47:54;;;;;;;;;;;;;;;;;;2117387;28;19928;-76
2022/02/01 05:49:10;;;;;;;;;;;;;;;;;;2113235;28;20746;-77
2022/02/01 05:50:20;;;;;;;;;;;;;;;;;;2116665;28;20043;-75
2022/02/01 05:51:39;;;;;;;;;;;;;;;;;;2129913;27;19949;-72
2022/02/01 05:53:01;;;;;;;;;;;;;;;;;;2120300;27;20006;-75
2022/02/01 05:54:26;;;;;;;;;;;;;;;;;;2114659;28;19928;-75
2022/02/01 05:55:49;;;;;;;;;;;;;;;;;;2117237;28;20074;-76
2022/02/01 05:57:09;;;;;;;;;;;;;;;;;;2131216;27;19927;-77
2022/02/01 05:58:31;;;;;;;;;;;;;;;;;;2120580;27;19928;-75
2022/02/01 05:59:52;;;;;;;;;;;;;;;;;;2114706;28;19924;-75
2022/02/01 06:01:15;;;;;;;;;;;;;;;;;;2117101;28;20693;-74
2022/02/01 06:02:36;;;;;;;;;;;;;;;;;;2117290;28;20036;-77
2022/02/01 06:03:57;;;;;;;;;;;;;;;;;;2117417;28;20061;-74
2022/02/01 06:05:18;;;;;;;;;;;;;;;;;;2117984;28;19983;-78
2022/02/01 06:06:40;;;;;;;;;;;;;;;;;;2116871;28;20073;-77
2022/02/01 06:08:02;;;;;;;;;;;;;;;;;;2117443;28;19928;-75
2022/02/01 06:09:24;;;;;;;;;;;;;;;;;;2117274;28;19928;-76
2022/02/01 06:10:47;;;;;;;;;;;;;;;;;;2116992;28;20743;-77
2022/02/01 06:12:10;;;;;;;;;;;;;;;;;;2114768;28;20706;-75
2022/02/01 06:13:36;;;;;;;;;;;;;;;;;;2117753;28;20025;-76
2022/02/01 06:14:59;;;;;;;;;;;;;;;;;;2118172;27;19935;-75
2022/02/01 06:16:33;;;;;;;;;;;;;;;;;;2117268;27;19968;-75
2022/02/01 06:17:55;;;;;;;;;;;;;;;;;;2117325;28;19928;-76
2022/02/01 06:19:16;;;;;;;;;;;;;;;;;;2117336;28;19924;-78
2022/02/01 06:20:51;;;;;;;;;;;;;;;;;;2118109;28;20066;-76
2022/02/01 06:22:13;;;;;;;;;;;;;;;;;;2118068;27;19924;-76
2022/02/01 06:23:35;;;;;;;;;;;;;;;;;;2117800;27;20689;-75
2022/02/01 06:24:57;;;;;;;;;;;;;;;;;;2117584;28;19935;-75
2022/02/01 06:26:21;;;;;;;;;;;;;;;;;;2117982;28;19935;-78
2022/02/01 06:27:43;;;;;;;;;;;;;;;;;;2117559;28;20713;-74
2022/02/01 06:29:13;;;;;;;;;;;;;;;;;;2117243;28;19928;-79
2022/02/01 06:30:34;;;;;;;;;;;;;;;;;;2117811;28;20715;-78
2022/02/01 06:31:56;;;;;;;;;;;;;;;;;;2117438;28;19928;-75
2022/02/01 06:33:17;;;;;;;;;;;;;;;;;;2121828;27;19924;-77
2022/02/01 06:34:40;;;;;;;;;;;;;;;;;;2119638;27;19932;-77
2022/02/01 06:36:04;;;;;;;;;;;;;;;;;;2124291;27;19997;-78
2022/02/01 06:37:26;;;;;;;;;;;;;;;;;;2122499;27;20742;-78
2022/02/01 06:38:53;;;;;;;;;;;;;;;;;;2123304;27;20873;-77
2022/02/01 06:40:18;;;;;;;;;;;;;;;;;;2120995;27;20061;-77
2022/02/01 06:41:44;;;;;;;;;;;;;;;;;;2122533;27;20697;-76
2022/02/01 06:43:13;;;;;;;;;;;;;;;;;;2120840;27;19984;-75
2022/02/01 06:44:38;;;;;;;;;;;;;;;;;;2122605;27;20900;-62
2022/02/01 06:45:59;;;;;;;;;;;;;;;;;;2123967;27;19928;-69
2022/02/01 06:47:21;;;;;;;;;;;;;;;;;;2122024;27;20780;-65
2022/02/01 06:48:42;;;;;;;;;;;;;;;;;;2123543;27;19935;-67
2022/02/01 06:50:04;;;;;;;;;;;;;;;;;;2122748;27;19928;-63
2022/02/01 06:51:27;;;;;;;;;;;;;;;;;;2125062;27;19939;-68
2022/02/01 06:52:54;;;;;;;;;;;;;;;;;;2124196;27;19935;-64
2022/02/01 06:54:16;;;;;;;;;;;;;;;;;;2124262;27;19935;-72
2022/02/01 06:57:01;;;;;;;;;;;;;;;;;;2124257;27;19924;-67
2022/02/01 06:58:23;;;;;;;;;;;;;;;;;;2123612;27;20779;-69
2022/02/01 06:59:44;;;;;;;;;;;;;;;;;;2124587;27;20088;-69
2022/02/01 07:01:06;;;;;;;;;;;;;;;;;;2125353;27;19928;-68
2022/02/01 07:02:27;;;;;;;;;;;;;;;;;;2123236;27;20682;-73
2022/02/01 07:03:48;;;;;;;;;;;;;;;;;;2123465;27;19928;-66
2022/02/01 07:05:10;;;;;;;;;;;;;;;;;;2126160;27;20001;-65
2022/02/01 07:06:33;;;;;;;;;;;;;;;;;;2126268;27;19934;-67
2022/02/01 07:07:54;;;;;;;;;;;;;;;;;;2124220;27;19931;-68
2022/02/01 07:09:16;;;;;;;;;;;;;;;;;;2123918;27;19928;-63
2022/02/01 07:10:37;;;;;;;;;;;;;;;;;;2124603;27;19931;-62
2022/02/01 07:11:59;;;;;;;;;;;;;;;;;;2124442;27;19931;-72
2022/02/01 07:13:20;;;;;;;;;;;;;;;;;;2124456;27;19927;-72
2022/02/01 07:14:42;;;;;;;;;;;;;;;;;;2126193;27;19999;-65
2022/02/01 07:16:03;;;;;;;;;;;;;;;;;;2123654;27;19927;-64
2022/02/01 07:17:25;;;;;;;;;;;;;;;;;;2124044;27;19923;-63
2022/02/01 07:18:46;;;;;;;;;;;;;;;;;;2126193;27;19927;-68
2022/02/01 07:20:07;;;;;;;;;;;;;;;;;;2126382;27;20560;-69
2022/02/01 07:21:29;;;;;;;;;;;;;;;;;;2124963;27;20036;-67
2022/02/01 07:22:50;;;;;;;;;;;;;;;;;;2125764;27;19934;-72
2022/02/01 07:24:16;;;;;;;;;;;;;;;;;;2123770;27;20761;-70
2022/02/01 07:25:45;;;;;;;;;;;;;;;;;;2122999;27;19935;-68
2022/02/01 07:27:12;;;;;;;;;;;;;;;;;;2124593;27;19931;-69
2022/02/01 07:28:33;;;;;;;;;;;;;;;;;;2124140;27;19931;-70
2022/02/01 07:29:55;;;;;;;;;;;;;;;;;;2124634;27;20025;-71
2022/02/01 07:31:16;;;;;;;;;;;;;;;;;;2126186;27;19928;-65
2022/02/01 07:32:38;;;;;;;;;;;;;;;;;;2125368;27;20028;-67
2022/02/01 07:33:59;;;;;;;;;;;;;;;;;;2124511;27;19931;-69
2022/02/01 07:35:21;;;;;;;;;;;;;;;;;;2121733;27;19934;-66
2022/02/01 07:36:43;;;;;;;;;;;;;;;;;;2123355;27;19927;-70
2022/02/01 07:38:04;;;;;;;;;;;;;;;;;;2126530;27;19923;-64
2022/02/01 07:39:26;;;;;;;;;;;;;;;;;;2125716;27;19932;-63
2022/02/01 07:40:47;;;;;;;;;;;;;;;;;;2122447;27;19928;-70
2022/02/01 07:42:08;;;;;;;;;;;;;;;;;;2123164;27;19935;-67
2022/02/01 07:43:31;;;;;;;;;;;;;;;;;;2126310;27;19928;-64
2022/02/01 07:44:52;;;;;;;;;;;;;;;;;;2125297;27;19934;-63
2022/02/01 07:46:15;;;;;;;;;;;;;;;;;;2122848;27;19935;-65
2022/02/01 07:47:37;;;;;;;;;;;;;;;;;;2124594;27;20751;-68
2022/02/01 07:48:58;;;;;;;;;;;;;;;;;;2124422;27;19934;-66
2022/02/01 07:50:19;;;;;;;;;;;;;;;;;;2124703;27;19982;-65
2022/02/01 07:51:41;;;;;;;;;;;;;;;;;;2125566;27;20756;-67
2022/02/01 07:53:02;;;;;;;;;;;;;;;;;;2124827;27;19932;-62
2022/02/01 07:54:23;;;;;;;;;;;;;;;;;;2125563;27;19924;-67
2022/02/01 07:55:45;;;;;;;;;;;;;;;;;;2125783;27;20029;-68
2022/02/01 07:57:09;;;;;;;;;;;;;;;;;;2124095;27;19928;-67
2022/02/01 07:58:31;;;;;;;;;;;;;;;;;;2125586;27;19931;-67
2022/02/01 07:59:53;;;;;;;;;;;;;;;;;;2126407;27;19931;-68
2022/02/01 08:01:15;;;;;;;;;;;;;;;;;;2124948;27;19931;-66
2022/02/01 08:02:36;;;;;;;;;;;;;;;;;;2124689;27;20754;-67
2022/02/01 08:03:58;;;;;;;;;;;;;;;;;;2106958;28;20807;-70
2022/02/01 08:05:19;;;;;;;;;;;;;;;;;;2104694;28;19998;-69
2022/02/01 08:06:40;;;;;;;;;;;;;;;;;;2107144;28;20580;-70
2022/02/01 08:08:02;;;;;;;;;;;;;;;;;;2107282;28;19929;-69
2022/02/01 08:09:31;;;;;;;;;;;;;;;;;;2107597;28;20810;-69
2022/02/01 08:10:55;;;;;;;;;;;;;;;;;;2107638;28;20694;-70
2022/02/01 08:12:33;;;;;;;;;;;;;;;;;;2107720;28;20726;-67
2022/02/01 08:17:37;;;;;;;;;;;;;;;;;;2105267;28;19932;-64
2022/02/01 08:19:06;;;;;;;;;;;;;;;;;;2108455;28;19935;-67
2022/02/01 08:20:35;;;;;;;;;;;;;;;;;;2107522;28;19943;-63
2022/02/01 08:22:06;;;;;;;;;;;;;;;;;;2108011;28;19929;-64
2022/02/01 08:23:28;;;;;;;;;;;;;;;;;;2106518;28;19960;-64
2022/02/01 08:24:49;;;;;;;;;;;;;;;;;;2105198;28;20794;-70
2022/02/01 08:26:10;;;;;;;;;;;;;;;;;;2108144;28;19928;-67
2022/02/01 08:27:32;;;;;;;;;;;;;;;;;;2107769;28;19932;-62
2022/02/01 08:28:53;;;;;;;;;;;;;;;;;;2107124;28;19925;-65
2022/02/01 08:30:15;;;;;;;;;;;;;;;;;;2108039;28;19924;-67
2022/02/01 08:31:36;;;;;;;;;;;;;;;;;;2108001;28;20679;-71
2022/02/01 08:32:51;;;;;;;;;;;;;;;;;;2107199;28;19936;-70
2022/02/01 08:34:13;;;;;;;;;;;;;;;;;;2107301;28;19924;-71
2022/02/01 08:35:34;;;;;;;;;;;;;;;;;;2107059;28;19955;-68
2022/02/01 08:36:55;;;;;;;;;;;;;;;;;;2108562;28;20040;-72
2022/02/01 08:38:17;;;;;;;;;;;;;;;;;;2108325;28;19931;-65
2022/02/01 08:39:38;;;;;;;;;;;;;;;;;;2108193;28;19932;-69
2022/02/01 08:41:00;;;;;;;;;;;;;;;;;;2108055;28;19928;-72
2022/02/01 08:42:22;;;;;;;;;;;;;;;;;;2108024;28;20002;-67
2022/02/01 08:43:43;;;;;;;;;;;;;;;;;;2107946;28;19928;-69
2022/02/01 08:45:04;;;;;;;;;;;;;;;;;;2107038;28;20708;-72
2022/02/01 08:46:26;;;;;;;;;;;;;;;;;;2108324;28;19983;-76
2022/02/01 08:47:47;;;;;;;;;;;;;;;;;;2108233;28;20607;-67
2022/02/01 08:49:09;;;;;;;;;;;;;;;;;;2108243;28;19924;-76
2022/02/01 08:50:34;;;;;;;;;;;;;;;;;;2107092;28;19998;-76
2022/02/01 08:52:02;;;;;;;;;;;;;;;;;;2109228;28;21499;-77
2022/02/01 08:53:18;;;;;;;;;;;;;;;;;;2108752;28;19924;-69
2022/02/01 08:54:40;;;;;;;;;;;;;;;;;;2106795;28;19928;-68
2022/02/01 08:56:03;;;;;;;;;;;;;;;;;;2107632;28;20707;-69
2022/02/01 08:57:25;;;;;;;;;;;;;;;;;;2105078;28;19936;-67
2022/02/01 08:58:47;;;;;;;;;;;;;;;;;;2107836;28;19928;-72
2022/02/01 09:00:11;;;;;;;;;;;;;;;;;;2107484;28;19924;-73
2022/02/01 09:01:32;;;;;;;;;;;;;;;;;;2107201;28;20764;-72
2022/02/01 09:02:54;;;;;;;;;;;;;;;;;;2107747;27;20712;-70
2022/02/01 09:04:15;;;;;;;;;;;;;;;;;;2124038;27;19936;-68
2022/02/01 09:05:37;;;;;;;;;;;;;;;;;;2124350;27;19958;-70
2022/02/01 09:06:58;;;;;;;;;;;;;;;;;;2124864;27;19931;-65
2022/02/01 09:08:19;;;;;;;;;;;;;;;;;;2121536;27;19923;-61
2022/02/01 09:09:41;;;;;;;;;;;;;;;;;;2122268;27;19934;-65
2022/02/01 09:11:02;;;;;;;;;;;;;;;;;;2124357;27;20014;-62
2022/02/01 09:12:23;;;;;;;;;;;;;;;;;;2124023;27;19934;-62
2022/02/01 09:13:46;;;;;;;;;;;;;;;;;;2125629;27;19935;-62
2022/02/01 09:15:08;;;;;;;;;;;;;;;;;;2124373;27;19928;-63
2022/02/01 09:16:29;;;;;;;;;;;;;;;;;;2123299;27;20001;-61
2022/02/01 09:17:51;;;;;;;;;;;;;;;;;;2125854;27;19997;-67
2022/02/01 09:19:06;;;;;;;;;;;;;;;;;;2124229;27;20042;-63
2022/02/01 09:20:27;;;;;;;;;;;;;;;;;;2122480;27;20004;-61
2022/02/01 09:21:49;;;;;;;;;;;;;;;;;;2125365;27;19997;-64
2022/02/01 09:23:10;;;;;;;;;;;;;;;;;;2123766;27;20804;-61
2022/02/01 09:24:13;;;;;;;;;;;;;;;;;;2124138;27;19923;-62
2022/02/01 09:25:19;;;;;;;;;;;;;;;;;;2124491;27;19931;-62
2022/02/01 09:26:23;;;;;;;;;;;;;;;;;;2125008;27;19927;-62
2022/02/01 09:27:40;;;;;;;;;;;;;;;;;;2124713;27;19927;-63
2022/02/01 09:28:58;;;;;;;;;;;;;;;;;;2122997;27;19927;-62
2022/02/01 09:30:14;;;;;;;;;;;;;;;;;;2122909;27;19974;-62
2022/02/01 09:31:31;;;;;;;;;;;;;;;;;;2124909;27;19924;-64
2022/02/01 09:32:50;;;;;;;;;;;;;;;;;;2124547;27;19950;-71
2022/02/01 09:34:07;;;;;;;;;;;;;;;;;;2123583;27;19993;-71
2022/02/01 09:35:25;;;;;;;;;;;;;;;;;;2124508;27;19924;-69
2022/02/01 09:36:43;;;;;;;;;;;;;;;;;;2122802;27;19927;-68
2022/02/01 09:37:55;;;;;;;;;;;;;;;;;;2124194;27;19928;-70
2022/02/01 09:39:08;;;;;;;;;;;;;;;;;;2125320;27;20774;-70
2022/02/01 09:40:25;;;;;;;;;;;;;;;;;;2125595;27;19927;-66
2022/02/01 09:41:37;;;;;;;;;;;;;;;;;;2124429;27;19973;-65
2022/02/01 09:42:52;;;;;;;;;;;;;;;;;;2124569;27;20095;-66
2022/02/01 09:44:13;;;;;;;;;;;;;;;;;;2125393;27;19927;-64
2022/02/01 09:45:36;;;;;;;;;;;;;;;;;;2124460;27;19927;-66
2022/02/01 09:46:56;;;;;;;;;;;;;;;;;;2124371;27;20611;-61
2022/02/01 09:48:15;;;;;;;;;;;;;;;;;;2123100;27;19935;-62
2022/02/01 09:49:34;;;;;;;;;;;;;;;;;;2125049;27;19928;-65
2022/02/01 09:50:56;;;;;;;;;;;;;;;;;;2124837;27;20666;-62
2022/02/01 09:52:20;;;;;;;;;;;;;;;;;;2124646;27;20063;-69
2022/02/01 09:53:41;;;;;;;;;;;;;;;;;;2124017;27;19935;-68
2022/02/01 09:54:47;;;;;;;;;;;;;;;;;;2124049;27;19927;-72
2022/02/01 09:56:06;;;;;;;;;;;;;;;;;;2117627;27;20717;-69
2022/02/01 09:57:25;;;;;;;;;;;;;;;;;;2124432;27;19928;-69
2022/02/01 09:58:45;;;;;;;;;;;;;;;;;;2124978;27;19927;-66